PRIVATE WETTERSTATION BILLIGHEIM-ALLFELD                       ZURCK
Wetterdaten: Sonntag, 22.10.2017
Datum Zeit Temp. A. Temp. A. min Temp. A. max Feuchte A. Luftdruck Regen Wind Richtung Richtung Sonnenschein ET Solar Taupunkt Windchill Windben Empfang
22.10.2017 00:00 9,5 C 9,5 C 9,6 C 90 % 1016,5 hPa 0,2 l/m 1,6 km/h (1 Bft) S 180 0 min 0,000 mm 0 W/m 7,9 C 9,5 C 9,7 km/h (2 Bft) 100 %
22.10.2017 00:10 9,4 C 9,4 C 9,5 C 90 % 1016,4 hPa 0,0 l/m 1,6 km/h (1 Bft) S 180 0 min 0,000 mm 0 W/m 7,8 C 9,4 C 9,7 km/h (2 Bft) 100 %
22.10.2017 00:20 9,4 C 9,4 C 9,4 C 90 % 1016,4 hPa 0,0 l/m 3,2 km/h (1 Bft) S 180 0 min 0,000 mm 0 W/m 7,8 C 9,4 C 9,7 km/h (2 Bft) 100 %
22.10.2017 00:30 9,4 C 9,4 C 9,4 C 90 % 1016,3 hPa 0,0 l/m 1,6 km/h (1 Bft) S-SO 157 0 min 0,000 mm 0 W/m 7,8 C 9,4 C 8,0 km/h (2 Bft) 100 %
22.10.2017 00:40 9,4 C 9,4 C 9,4 C 90 % 1016,1 hPa 0,0 l/m 1,6 km/h (1 Bft) S-SO 157 0 min 0,000 mm 0 W/m 7,8 C 9,4 C 9,7 km/h (2 Bft) 100 %
22.10.2017 00:50 9,3 C 9,3 C 9,4 C 90 % 1016,1 hPa 0,0 l/m 3,2 km/h (1 Bft) S-SO 157 0 min 0,000 mm 0 W/m 7,7 C 9,3 C 8,0 km/h (2 Bft) 100 %
22.10.2017 01:00 9,3 C 9,3 C 9,3 C 90 % 1016,1 hPa 0,0 l/m 1,6 km/h (1 Bft) S 180 0 min 0,000 mm 0 W/m 7,7 C 9,3 C 9,7 km/h (2 Bft) 100 %
22.10.2017 01:10 9,3 C 9,3 C 9,3 C 90 % 1016,2 hPa 0,0 l/m 0,0 km/h (0 Bft) S 180 0 min 0,000 mm 0 W/m 7,7 C 9,3 C 1,6 km/h (1 Bft) 99 %
22.10.2017 01:20 9,3 C 9,3 C 9,3 C 90 % 1016,3 hPa 0,0 l/m 0,0 km/h (0 Bft) S-SW 202 0 min 0,000 mm 0 W/m 7,7 C 9,3 C 4,8 km/h (1 Bft) 100 %
22.10.2017 01:30 9,3 C 9,3 C 9,3 C 90 % 1016,2 hPa 0,0 l/m 1,6 km/h (1 Bft) S-SW 202 0 min 0,000 mm 0 W/m 7,7 C 9,3 C 11,3 km/h (2 Bft) 100 %
22.10.2017 01:40 9,3 C 9,3 C 9,3 C 90 % 1016,3 hPa 0,0 l/m 3,2 km/h (1 Bft) S 180 0 min 0,000 mm 0 W/m 7,7 C 9,3 C 9,7 km/h (2 Bft) 100 %
22.10.2017 01:50 9,3 C 9,2 C 9,3 C 90 % 1016,4 hPa 0,0 l/m 0,0 km/h (0 Bft) S-SW 202 0 min 0,000 mm 0 W/m 7,7 C 9,3 C 4,8 km/h (1 Bft) 100 %
22.10.2017 02:00 9,3 C 9,3 C 9,3 C 90 % 1016,3 hPa 0,0 l/m 0,0 km/h (0 Bft) S 180 0 min 0,000 mm 0 W/m 7,7 C 9,3 C 8,0 km/h (2 Bft) 100 %
22.10.2017 02:10 9,3 C 9,2 C 9,3 C 90 % 1016,5 hPa 0,0 l/m 3,2 km/h (1 Bft) S 180 0 min 0,000 mm 0 W/m 7,7 C 9,3 C 11,3 km/h (2 Bft) 100 %
22.10.2017 02:20 9,2 C 9,2 C 9,3 C 90 % 1016,7 hPa 0,0 l/m 11,3 km/h (2 Bft) S-SW 202 0 min 0,000 mm 0 W/m 7,6 C 6,0 C 24,1 km/h (4 Bft) 100 %
22.10.2017 02:30 9,3 C 9,2 C 9,3 C 90 % 1016,7 hPa 0,0 l/m 11,3 km/h (2 Bft) S-SW 202 0 min 0,000 mm 0 W/m 7,7 C 6,1 C 24,1 km/h (4 Bft) 100 %
22.10.2017 02:40 9,2 C 9,2 C 9,3 C 90 % 1016,5 hPa 0,2 l/m 9,7 km/h (2 Bft) S 180 0 min 0,000 mm 0 W/m 7,6 C 6,9 C 19,3 km/h (3 Bft) 100 %
22.10.2017 02:50 9,2 C 9,2 C 9,2 C 90 % 1016,4 hPa 0,0 l/m 9,7 km/h (2 Bft) S-SW 202 0 min 0,000 mm 0 W/m 7,6 C 6,9 C 19,3 km/h (3 Bft) 100 %
22.10.2017 03:00 9,2 C 9,2 C 9,2 C 90 % 1016,6 hPa 0,0 l/m 9,7 km/h (2 Bft) S 180 0 min 0,025 mm 0 W/m 7,6 C 6,9 C 19,3 km/h (3 Bft) 100 %
22.10.2017 03:10 9,1 C 9,1 C 9,2 C 90 % 1016,6 hPa 0,0 l/m 8,0 km/h (2 Bft) S-SW 202 0 min 0,000 mm 0 W/m 7,5 C 7,9 C 17,7 km/h (3 Bft) 99 %
22.10.2017 03:20 9,1 C 9,1 C 9,1 C 90 % 1016,7 hPa 0,0 l/m 8,0 km/h (2 Bft) S-SW 202 0 min 0,000 mm 0 W/m 7,5 C 7,9 C 14,5 km/h (3 Bft) 100 %
22.10.2017 03:30 9,1 C 9,0 C 9,1 C 90 % 1016,6 hPa 0,0 l/m 8,0 km/h (2 Bft) S-SW 202 0 min 0,000 mm 0 W/m 7,5 C 7,9 C 19,3 km/h (3 Bft) 100 %
22.10.2017 03:40 9,0 C 9,0 C 9,1 C 90 % 1016,5 hPa 0,0 l/m 8,0 km/h (2 Bft) S 180 0 min 0,000 mm 0 W/m 7,4 C 7,8 C 14,5 km/h (3 Bft) 100 %
22.10.2017 03:50 9,0 C 9,0 C 9,0 C 90 % 1016,3 hPa 0,2 l/m 8,0 km/h (2 Bft) S-SW 202 0 min 0,000 mm 0 W/m 7,4 C 7,8 C 17,7 km/h (3 Bft) 100 %
22.10.2017 04:00 8,9 C 8,9 C 9,0 C 90 % 1016,5 hPa 0,0 l/m 9,7 km/h (2 Bft) S-SW 202 0 min 0,025 mm 0 W/m 7,4 C 6,6 C 17,7 km/h (3 Bft) 100 %
22.10.2017 04:10 8,9 C 8,9 C 8,9 C 90 % 1016,3 hPa 0,0 l/m 9,7 km/h (2 Bft) S-SW 202 0 min 0,000 mm 0 W/m 7,4 C 6,6 C 19,3 km/h (3 Bft) 100 %
22.10.2017 04:20 8,7 C 8,7 C 8,9 C 90 % 1016,0 hPa 0,0 l/m 8,0 km/h (2 Bft) S-SW 202 0 min 0,000 mm 0 W/m 7,2 C 7,5 C 19,3 km/h (3 Bft) 89 %
22.10.2017 04:30 8,7 C 8,7 C 8,7 C 90 % 1016,0 hPa 0,0 l/m 8,0 km/h (2 Bft) S-SW 202 0 min 0,000 mm 0 W/m 7,2 C 7,5 C 19,3 km/h (3 Bft) 100 %
22.10.2017 04:40 8,7 C 8,7 C 8,7 C 90 % 1015,9 hPa 0,0 l/m 9,7 km/h (2 Bft) S-SW 202 0 min 0,000 mm 0 W/m 7,2 C 6,3 C 17,7 km/h (3 Bft) 100 %
22.10.2017 04:50 8,7 C 8,7 C 8,7 C 90 % 1015,8 hPa 0,0 l/m 6,4 km/h (2 Bft) S-SW 202 0 min 0,000 mm 0 W/m 7,2 C 8,7 C 14,5 km/h (3 Bft) 99 %
22.10.2017 05:00 8,7 C 8,7 C 8,7 C 90 % 1015,8 hPa 0,0 l/m 6,4 km/h (2 Bft) S-SW 202 0 min 0,000 mm 0 W/m 7,2 C 8,7 C 14,5 km/h (3 Bft) 100 %
22.10.2017 05:10 8,7 C 8,6 C 8,7 C 90 % 1015,8 hPa 0,0 l/m 6,4 km/h (2 Bft) S-SW 202 0 min 0,000 mm 0 W/m 7,2 C 8,7 C 11,3 km/h (2 Bft) 100 %
22.10.2017 05:20 8,6 C 8,6 C 8,7 C 90 % 1015,7 hPa 0,0 l/m 4,8 km/h (1 Bft) S 180 0 min 0,000 mm 0 W/m 7,1 C 8,6 C 14,5 km/h (3 Bft) 100 %
22.10.2017 05:30 8,3 C 8,3 C 8,6 C 90 % 1015,7 hPa 0,0 l/m 6,4 km/h (2 Bft) S 180 0 min 0,000 mm 0 W/m 6,8 C 8,3 C 12,9 km/h (3 Bft) 98 %
22.10.2017 05:40 8,2 C 8,2 C 8,3 C 90 % 1015,6 hPa 0,0 l/m 3,2 km/h (1 Bft) S 180 0 min 0,000 mm 0 W/m 6,7 C 8,2 C 12,9 km/h (3 Bft) 100 %
22.10.2017 05:50 7,9 C 7,9 C 8,2 C 90 % 1015,5 hPa 0,0 l/m 1,6 km/h (1 Bft) S-SO 157 0 min 0,000 mm 0 W/m 6,4 C 7,9 C 9,7 km/h (2 Bft) 100 %
22.10.2017 06:00 7,8 C 7,8 C 7,9 C 90 % 1015,5 hPa 0,0 l/m 1,6 km/h (1 Bft) S-SO 157 0 min 0,000 mm 0 W/m 6,3 C 7,8 C 8,0 km/h (2 Bft) 100 %
22.10.2017 06:10 7,6 C 7,6 C 7,8 C 90 % 1015,6 hPa 0,0 l/m 0,0 km/h (0 Bft) S 180 0 min 0,000 mm 0 W/m 6,1 C 7,6 C 4,8 km/h (1 Bft) 100 %
22.10.2017 06:20 7,4 C 7,4 C 7,6 C 90 % 1015,6 hPa 0,0 l/m 4,8 km/h (1 Bft) S 180 0 min 0,000 mm 0 W/m 5,9 C 7,4 C 14,5 km/h (3 Bft) 100 %
22.10.2017 06:30 7,5 C 7,4 C 7,5 C 90 % 1015,6 hPa 0,0 l/m 6,4 km/h (2 Bft) S-SW 202 0 min 0,000 mm 0 W/m 6,0 C 7,5 C 12,9 km/h (3 Bft) 100 %
22.10.2017 06:40 7,6 C 7,5 C 7,6 C 90 % 1015,6 hPa 0,0 l/m 6,4 km/h (2 Bft) S-SW 202 0 min 0,000 mm 0 W/m 6,1 C 7,6 C 16,1 km/h (3 Bft) 100 %
22.10.2017 06:50 7,8 C 7,6 C 7,8 C 90 % 1015,7 hPa 0,0 l/m 4,8 km/h (1 Bft) S 180 0 min 0,000 mm 0 W/m 6,3 C 7,8 C 16,1 km/h (3 Bft) 100 %
22.10.2017 07:00 7,9 C 7,8 C 7,9 C 90 % 1015,7 hPa 0,0 l/m 6,4 km/h (2 Bft) S-SW 202 0 min 0,000 mm 0 W/m 6,4 C 7,9 C 16,1 km/h (3 Bft) 100 %
22.10.2017 07:10 7,9 C 7,9 C 7,9 C 90 % 1015,7 hPa 0,0 l/m 8,0 km/h (2 Bft) S-SW 202 0 min 0,000 mm 0 W/m 6,4 C 6,6 C 17,7 km/h (3 Bft) 100 %
22.10.2017 07:20 7,9 C 7,9 C 8,0 C 90 % 1015,5 hPa 0,0 l/m 8,0 km/h (2 Bft) S-SW 202 0 min 0,000 mm 0 W/m 6,4 C 6,6 C 16,1 km/h (3 Bft) 100 %
22.10.2017 07:30 7,9 C 7,9 C 7,9 C 90 % 1015,5 hPa 0,0 l/m 9,7 km/h (2 Bft) SW 225 0 min 0,000 mm 0 W/m 6,4 C 5,5 C 24,1 km/h (4 Bft) 100 %
22.10.2017 07:40 7,9 C 7,9 C 7,9 C 90 % 1015,5 hPa 0,0 l/m 8,0 km/h (2 Bft) S-SW 202 0 min 0,000 mm 0 W/m 6,4 C 6,6 C 20,9 km/h (4 Bft) 100 %
22.10.2017 07:50 8,0 C 7,9 C 8,0 C 90 % 1015,5 hPa 0,0 l/m 4,8 km/h (1 Bft) SW 225 0 min 0,000 mm 0 W/m 6,5 C 8,0 C 16,1 km/h (3 Bft) 100 %
22.10.2017 08:00 8,1 C 8,0 C 8,1 C 90 % 1015,6 hPa 0,0 l/m 4,8 km/h (1 Bft) S-SW 202 0 min 0,000 mm 0 W/m 6,6 C 8,1 C 17,7 km/h (3 Bft) 100 %
22.10.2017 08:10 8,0 C 8,0 C 8,1 C 90 % 1015,7 hPa 0,0 l/m 6,4 km/h (2 Bft) S-SW 202 0 min 0,000 mm 7 W/m 6,5 C 8,0 C 19,3 km/h (3 Bft) 99 %
22.10.2017 08:20 8,1 C 8,0 C 8,1 C 90 % 1015,9 hPa 0,0 l/m 8,0 km/h (2 Bft) S-SW 202 0 min 0,000 mm 18 W/m 6,6 C 6,9 C 20,9 km/h (4 Bft) 100 %
22.10.2017 08:30 8,1 C 8,1 C 8,1 C 90 % 1015,7 hPa 0,0 l/m 11,3 km/h (2 Bft) SW 225 0 min 0,000 mm 33 W/m 6,6 C 4,7 C 27,4 km/h (4 Bft) 100 %
22.10.2017 08:40 8,1 C 8,1 C 8,1 C 91 % 1015,8 hPa 0,0 l/m 11,3 km/h (2 Bft) SW 225 0 min 0,000 mm 33 W/m 6,7 C 4,7 C 27,4 km/h (4 Bft) 100 %
22.10.2017 08:50 8,2 C 8,1 C 8,2 C 90 % 1016,0 hPa 0,0 l/m 14,5 km/h (3 Bft) S-SW 202 0 min 0,000 mm 53 W/m 6,7 C 3,2 C 30,6 km/h (5 Bft) 100 %
22.10.2017 09:00 8,4 C 8,2 C 8,4 C 90 % 1016,0 hPa 0,0 l/m 11,3 km/h (2 Bft) SW 225 0 min 0,025 mm 46 W/m 6,9 C 5,1 C 25,7 km/h (4 Bft) 100 %
22.10.2017 09:10 8,4 C 8,4 C 8,4 C 90 % 1016,1 hPa 0,0 l/m 9,7 km/h (2 Bft) SW 225 0 min 0,000 mm 62 W/m 6,9 C 6,0 C 20,9 km/h (4 Bft) 100 %
22.10.2017 09:20 8,6 C 8,4 C 8,6 C 90 % 1016,0 hPa 0,0 l/m 8,0 km/h (2 Bft) SW 225 0 min 0,000 mm 56 W/m 7,1 C 7,4 C 24,1 km/h (4 Bft) 100 %
22.10.2017 09:30 8,6 C 8,6 C 8,6 C 90 % 1016,1 hPa 0,0 l/m 3,2 km/h (1 Bft) SW 225 0 min 0,000 mm 54 W/m 7,1 C 8,6 C 17,7 km/h (3 Bft) 100 %
22.10.2017 09:40 8,6 C 8,6 C 8,6 C 90 % 1016,1 hPa 0,0 l/m 6,4 km/h (2 Bft) S-SW 202 0 min 0,000 mm 63 W/m 7,1 C 8,6 C 22,5 km/h (4 Bft) 100 %
22.10.2017 09:50 8,6 C 8,6 C 8,7 C 90 % 1016,1 hPa 0,0 l/m 6,4 km/h (2 Bft) S-SW 202 0 min 0,000 mm 60 W/m 7,1 C 8,6 C 20,9 km/h (4 Bft) 100 %
22.10.2017 10:00 8,7 C 8,6 C 8,7 C 89 % 1016,1 hPa 0,0 l/m 8,0 km/h (2 Bft) W-SW 247 0 min 0,025 mm 72 W/m 7,0 C 7,5 C 29,0 km/h (5 Bft) 100 %
22.10.2017 10:10 8,7 C 8,6 C 8,7 C 89 % 1016,1 hPa 0,0 l/m 12,9 km/h (3 Bft) SW 225 0 min 0,000 mm 83 W/m 7,0 C 4,6 C 32,2 km/h (5 Bft) 100 %
22.10.2017 10:20 8,7 C 8,7 C 8,7 C 88 % 1016,1 hPa 0,0 l/m 11,3 km/h (2 Bft) SW 225 0 min 0,000 mm 98 W/m 6,8 C 5,4 C 29,0 km/h (5 Bft) 100 %
22.10.2017 10:30 8,7 C 8,7 C 8,7 C 86 % 1016,1 hPa 0,0 l/m 16,1 km/h (3 Bft) SW 225 0 min 0,000 mm 81 W/m 6,5 C 3,1 C 38,6 km/h (5 Bft) 99 %
22.10.2017 10:40 8,8 C 8,7 C 8,8 C 86 % 1016,1 hPa 0,0 l/m 14,5 km/h (3 Bft) SW 225 0 min 0,000 mm 79 W/m 6,6 C 3,9 C 38,6 km/h (5 Bft) 100 %
22.10.2017 10:50 8,9 C 8,8 C 8,9 C 86 % 1016,1 hPa 0,0 l/m 12,9 km/h (3 Bft) SW 225 0 min 0,000 mm 139 W/m 6,7 C 4,8 C 32,2 km/h (5 Bft) 100 %
22.10.2017 11:00 9,1 C 8,9 C 9,1 C 86 % 1016,0 hPa 0,0 l/m 12,9 km/h (3 Bft) SW 225 0 min 0,051 mm 142 W/m 6,9 C 5,0 C 29,0 km/h (5 Bft) 100 %
22.10.2017 11:10 9,2 C 9,1 C 9,2 C 84 % 1016,1 hPa 0,0 l/m 16,1 km/h (3 Bft) SW 225 0 min 0,000 mm 132 W/m 6,6 C 3,7 C 32,2 km/h (5 Bft) 100 %
22.10.2017 11:20 9,4 C 9,2 C 9,4 C 84 % 1015,9 hPa 0,0 l/m 16,1 km/h (3 Bft) SW 225 10 min 0,000 mm 248 W/m 6,8 C 3,9 C 30,6 km/h (5 Bft) 100 %
22.10.2017 11:30 9,6 C 9,4 C 9,6 C 83 % 1015,9 hPa 0,0 l/m 19,3 km/h (3 Bft) SW 225 10 min 0,000 mm 257 W/m 6,9 C 3,0 C 40,2 km/h (6 Bft) 100 %
22.10.2017 11:40 9,7 C 9,6 C 9,7 C 82 % 1016,0 hPa 0,0 l/m 17,7 km/h (3 Bft) SW 225 10 min 0,000 mm 181 W/m 6,8 C 3,7 C 33,8 km/h (5 Bft) 99 %
22.10.2017 11:50 9,7 C 9,7 C 9,7 C 82 % 1015,9 hPa 0,0 l/m 11,3 km/h (2 Bft) SW 225 10 min 0,000 mm 174 W/m 6,8 C 6,5 C 27,4 km/h (4 Bft) 100 %
22.10.2017 12:00 9,9 C 9,7 C 9,9 C 82 % 1015,9 hPa 0,0 l/m 11,3 km/h (2 Bft) SW 225 10 min 0,102 mm 244 W/m 7,0 C 6,8 C 29,0 km/h (5 Bft) 100 %
22.10.2017 12:10 10,1 C 9,9 C 10,1 C 81 % 1015,9 hPa 0,0 l/m 16,1 km/h (3 Bft) SW 225 10 min 0,000 mm 278 W/m 7,0 C 4,8 C 33,8 km/h (5 Bft) 100 %
22.10.2017 12:20 10,4 C 10,1 C 10,4 C 81 % 1015,9 hPa 0,0 l/m 11,3 km/h (2 Bft) W-SW 247 10 min 0,000 mm 408 W/m 7,3 C 7,3 C 27,4 km/h (4 Bft) 100 %
22.10.2017 12:40 10,3 C 10,1 C 10,4 C 79 % 1015,5 hPa 0,0 l/m 16,9 km/h (3 Bft) W-SW 244 20 min 0,001 mm 183 W/m 6,8 C 4,7 C 41,8 km/h (6 Bft) 100 %
22.10.2017 12:50 10,3 C 10,2 C 10,3 C 80 % 1015,4 hPa 0,0 l/m 14,4 km/h (3 Bft) S-SW 213 10 min 0,000 mm 506 W/m 7,0 C 5,8 C 30,6 km/h (5 Bft) 100 %
22.10.2017 13:00 10,9 C 10,3 C 10,9 C 80 % 1015,3 hPa 0,0 l/m 15,4 km/h (3 Bft) W-SW 246 10 min 0,152 mm 494 W/m 7,6 C 6,1 C 35,4 km/h (5 Bft) 99 %
22.10.2017 13:10 11,6 C 10,9 C 11,6 C 78 % 1015,1 hPa 0,0 l/m 10,8 km/h (2 Bft) NW 311 10 min 0,000 mm 534 W/m 7,9 C 8,9 C 30,6 km/h (5 Bft) 100 %
22.10.2017 13:20 11,7 C 11,6 C 11,7 C 76 % 1015,0 hPa 0,0 l/m 16,6 km/h (3 Bft) W-SW 241 10 min 0,000 mm 320 W/m 7,6 C 6,6 C 32,2 km/h (5 Bft) 100 %
22.10.2017 13:30 11,8 C 11,7 C 11,8 C 75 % 1014,9 hPa 0,0 l/m 14,1 km/h (3 Bft) S-SW 200 10 min 0,000 mm 292 W/m 7,5 C 7,7 C 33,8 km/h (5 Bft) 100 %
22.10.2017 13:40 11,9 C 11,8 C 11,9 C 75 % 1014,7 hPa 0,0 l/m 19,2 km/h (3 Bft) SW 236 10 min 0,000 mm 438 W/m 7,6 C 6,0 C 40,2 km/h (6 Bft) 91 %
22.10.2017 13:50 11,8 C 11,8 C 11,9 C 72 % 1014,9 hPa 0,0 l/m 20,1 km/h (4 Bft) SW 214 10 min 0,000 mm 237 W/m 6,9 C 5,6 C 38,6 km/h (5 Bft) 100 %
22.10.2017 14:00 11,3 C 11,3 C 11,8 C 74 % 1014,7 hPa 0,0 l/m 18,2 km/h (3 Bft) SW 215 10 min 0,229 mm 236 W/m 6,8 C 5,5 C 41,8 km/h (6 Bft) 99 %
22.10.2017 14:10 11,2 C 11,2 C 11,3 C 75 % 1014,6 hPa 0,0 l/m 8,2 km/h (2 Bft) W-SW 257 10 min 0,000 mm 169 W/m 6,9 C 10,0 C 25,7 km/h (4 Bft) 100 %
22.10.2017 14:20 11,2 C 11,2 C 11,2 C 74 % 1014,6 hPa 0,0 l/m 13,3 km/h (3 Bft) W-NW 303 0 min 0,000 mm 127 W/m 6,7 C 7,3 C 33,8 km/h (5 Bft) 100 %
22.10.2017 14:30 11,2 C 11,1 C 11,2 C 73 % 1014,5 hPa 0,0 l/m 15,1 km/h (3 Bft) W-SW 242 10 min 0,000 mm 385 W/m 6,5 C 6,5 C 33,8 km/h (5 Bft) 100 %
22.10.2017 14:40 11,2 C 11,2 C 11,3 C 74 % 1014,5 hPa 0,0 l/m 14,3 km/h (3 Bft) S-SW 205 10 min 0,000 mm 246 W/m 6,7 C 6,9 C 32,2 km/h (5 Bft) 100 %
22.10.2017 14:50 11,2 C 11,1 C 11,2 C 76 % 1014,5 hPa 0,0 l/m 12,3 km/h (3 Bft) S-SW 212 10 min 0,000 mm 297 W/m 7,1 C 7,8 C 45,1 km/h (6 Bft) 100 %
22.10.2017 15:00 11,2 C 11,2 C 11,3 C 77 % 1014,6 hPa 0,0 l/m 13,1 km/h (3 Bft) S-SW 213 0 min 0,127 mm 79 W/m 7,3 C 7,4 C 32,2 km/h (5 Bft) 99 %
22.10.2017 15:10 10,9 C 10,9 C 11,2 C 76 % 1014,5 hPa 0,0 l/m 12,1 km/h (2 Bft) W 274 0 min 0,000 mm 111 W/m 6,8 C 7,5 C 38,6 km/h (5 Bft) 99 %
22.10.2017 15:20 10,7 C 10,7 C 10,9 C 76 % 1014,5 hPa 0,0 l/m 11,5 km/h (2 Bft) W-NW 290 0 min 0,000 mm 79 W/m 6,6 C 7,6 C 33,8 km/h (5 Bft) 100 %
22.10.2017 15:30 10,6 C 10,6 C 10,7 C 77 % 1014,7 hPa 0,0 l/m 7,0 km/h (2 Bft) W-SW 252 0 min 0,000 mm 21 W/m 6,7 C 10,2 C 25,7 km/h (4 Bft) 100 %
22.10.2017 15:40 10,1 C 10,1 C 10,6 C 82 % 1014,7 hPa 0,2 l/m 11,5 km/h (2 Bft) W-SW 254 0 min 0,000 mm 35 W/m 7,2 C 6,9 C 33,8 km/h (5 Bft) 100 %
22.10.2017 15:50 9,6 C 9,6 C 10,1 C 85 % 1014,7 hPa 0,0 l/m 9,7 km/h (2 Bft) W 265 0 min 0,000 mm 62 W/m 7,2 C 7,3 C 33,8 km/h (5 Bft) 100 %
22.10.2017 16:00 9,3 C 9,3 C 9,6 C 87 % 1014,7 hPa 0,0 l/m 6,1 km/h (2 Bft) W-SW 244 0 min 0,051 mm 77 W/m 7,2 C 9,3 C 25,7 km/h (4 Bft) 100 %
22.10.2017 16:10 9,2 C 9,2 C 9,3 C 87 % 1014,9 hPa 0,2 l/m 7,0 km/h (2 Bft) W 259 0 min 0,000 mm 98 W/m 7,2 C 8,8 C 29,0 km/h (5 Bft) 100 %
22.10.2017 16:20 9,2 C 9,2 C 9,2 C 88 % 1014,9 hPa 0,0 l/m 5,6 km/h (1 Bft) W 267 0 min 0,000 mm 60 W/m 7,3 C 9,2 C 17,7 km/h (3 Bft) 100 %
22.10.2017 16:30 9,1 C 9,1 C 9,2 C 88 % 1015,0 hPa 0,2 l/m 8,6 km/h (2 Bft) W-NW 284 0 min 0,000 mm 54 W/m 7,2 C 7,5 C 27,4 km/h (4 Bft) 100 %
22.10.2017 16:40 8,8 C 8,8 C 9,1 C 88 % 1015,2 hPa 0,2 l/m 9,2 km/h (2 Bft) W-SW 240 0 min 0,000 mm 56 W/m 6,9 C 6,8 C 29,0 km/h (5 Bft) 100 %
22.10.2017 16:50 8,6 C 8,6 C 8,8 C 89 % 1015,3 hPa 0,2 l/m 6,2 km/h (2 Bft) W 273 0 min 0,000 mm 33 W/m 6,9 C 8,6 C 29,0 km/h (5 Bft) 100 %
22.10.2017 17:00 8,4 C 8,4 C 8,6 C 89 % 1015,4 hPa 0,0 l/m 9,1 km/h (2 Bft) W-SW 250 0 min 0,025 mm 51 W/m 6,7 C 6,4 C 30,6 km/h (5 Bft) 100 %
22.10.2017 17:10 8,3 C 8,3 C 8,4 C 90 % 1015,4 hPa 0,2 l/m 8,1 km/h (2 Bft) W-SW 240 0 min 0,000 mm 44 W/m 6,8 C 7,0 C 25,7 km/h (4 Bft) 91 %
22.10.2017 17:20 8,2 C 8,2 C 8,3 C 90 % 1015,5 hPa 0,0 l/m 6,4 km/h (2 Bft) S-SW 207 0 min 0,000 mm 23 W/m 6,7 C 8,2 C 25,7 km/h (4 Bft) 99 %
22.10.2017 17:30 8,1 C 8,1 C 8,2 C 90 % 1015,5 hPa 0,0 l/m 5,2 km/h (1 Bft) W-SW 250 0 min 0,000 mm 30 W/m 6,6 C 8,1 C 17,7 km/h (3 Bft) 100 %
22.10.2017 17:40 7,9 C 7,9 C 8,1 C 90 % 1015,6 hPa 0,0 l/m 11,1 km/h (2 Bft) S 190 0 min 0,000 mm 19 W/m 6,4 C 4,6 C 25,7 km/h (4 Bft) 99 %
22.10.2017 17:50 7,8 C 7,8 C 7,9 C 90 % 1015,6 hPa 0,2 l/m 9,2 km/h (2 Bft) W-SW 253 0 min 0,000 mm 16 W/m 6,3 C 5,7 C 22,5 km/h (4 Bft) 100 %
22.10.2017 18:00 7,7 C 7,7 C 7,8 C 90 % 1015,5 hPa 0,0 l/m 7,2 km/h (2 Bft) SW 214 0 min 0,026 mm 9 W/m 6,2 C 7,1 C 19,3 km/h (3 Bft) 99 %
22.10.2017 18:11 7,7 C 7,7 C 7,7 C 90 % 1015,7 hPa 0,0 l/m 8,9 km/h (2 Bft) SW 219 0 min 0,000 mm 5 W/m 6,2 C 5,8 C 25,7 km/h (4 Bft) 100 %
22.10.2017 18:20 7,7 C 7,7 C 7,7 C 90 % 1015,8 hPa 0,0 l/m 11,3 km/h (2 Bft) W-SW 242 0 min 0,000 mm 0 W/m 6,2 C 4,3 C 32,2 km/h (5 Bft) 100 %
22.10.2017 18:30 7,7 C 7,7 C 7,7 C 90 % 1015,7 hPa 0,0 l/m 5,9 km/h (2 Bft) SW 231 0 min 0,000 mm 0 W/m 6,2 C 7,7 C 17,7 km/h (3 Bft) 100 %
22.10.2017 18:40 7,7 C 7,7 C 7,7 C 90 % 1015,8 hPa 0,0 l/m 4,7 km/h (1 Bft) W-SW 240 0 min 0,000 mm 0 W/m 6,2 C 7,7 C 17,7 km/h (3 Bft) 99 %
22.10.2017 18:50 7,7 C 7,7 C 7,7 C 90 % 1016,1 hPa 0,0 l/m 3,5 km/h (1 Bft) W-SW 254 0 min 0,000 mm 0 W/m 6,2 C 7,7 C 19,3 km/h (3 Bft) 100 %
22.10.2017 19:00 7,7 C 7,7 C 7,7 C 90 % 1016,2 hPa 0,0 l/m 3,0 km/h (1 Bft) SW 232 0 min 0,000 mm 0 W/m 6,2 C 7,7 C 16,1 km/h (3 Bft) 99 %
22.10.2017 19:10 7,7 C 7,7 C 7,7 C 90 % 1016,1 hPa 0,0 l/m 6,9 km/h (2 Bft) W 280 0 min 0,000 mm 0 W/m 6,2 C 7,3 C 16,1 km/h (3 Bft) 99 %
22.10.2017 19:20 7,7 C 7,7 C 7,8 C 90 % 1016,3 hPa 0,0 l/m 6,3 km/h (2 Bft) W-SW 248 0 min 0,000 mm 0 W/m 6,2 C 7,7 C 19,3 km/h (3 Bft) 100 %
22.10.2017 19:30 7,8 C 7,7 C 7,8 C 90 % 1016,2 hPa 0,0 l/m 4,0 km/h (1 Bft) SW 215 0 min 0,000 mm 0 W/m 6,3 C 7,8 C 17,7 km/h (3 Bft) 99 %
22.10.2017 19:40 7,8 C 7,8 C 7,8 C 90 % 1016,4 hPa 0,0 l/m 9,3 km/h (2 Bft) SW 215 0 min 0,000 mm 0 W/m 6,3 C 5,6 C 19,3 km/h (3 Bft) 99 %
22.10.2017 19:50 7,9 C 7,8 C 7,9 C 90 % 1016,5 hPa 0,0 l/m 7,0 km/h (2 Bft) S-SW 209 0 min 0,000 mm 0 W/m 6,4 C 7,4 C 16,1 km/h (3 Bft) 100 %
22.10.2017 20:00 7,9 C 7,9 C 7,9 C 90 % 1016,5 hPa 0,0 l/m 4,4 km/h (1 Bft) W-SW 257 0 min 0,000 mm 0 W/m 6,4 C 7,9 C 14,5 km/h (3 Bft) 99 %
22.10.2017 20:10 7,9 C 7,9 C 7,9 C 90 % 1016,5 hPa 0,0 l/m 5,3 km/h (1 Bft) SW 234 0 min 0,000 mm 0 W/m 6,4 C 7,9 C 29,0 km/h (5 Bft) 100 %
22.10.2017 20:20 7,9 C 7,9 C 7,9 C 90 % 1016,4 hPa 0,0 l/m 7,1 km/h (2 Bft) S-SW 211 0 min 0,000 mm 0 W/m 6,4 C 7,3 C 19,3 km/h (3 Bft) 99 %
22.10.2017 20:30 7,9 C 7,9 C 7,9 C 90 % 1016,7 hPa 0,0 l/m 7,9 km/h (2 Bft) W 259 0 min 0,000 mm 0 W/m 6,4 C 6,7 C 22,5 km/h (4 Bft) 99 %
22.10.2017 20:40 7,9 C 7,9 C 7,9 C 90 % 1016,5 hPa 0,0 l/m 5,5 km/h (1 Bft) SW 219 0 min 0,000 mm 0 W/m 6,4 C 7,9 C 14,5 km/h (3 Bft) 97 %
22.10.2017 20:50 7,9 C 7,9 C 7,9 C 90 % 1016,7 hPa 0,0 l/m 3,5 km/h (1 Bft) SW 221 0 min 0,000 mm 0 W/m 6,4 C 7,9 C 16,1 km/h (3 Bft) 97 %
22.10.2017 21:00 7,9 C 7,9 C 7,9 C 90 % 1016,7 hPa 0,0 l/m 5,1 km/h (1 Bft) W-SW 246 0 min 0,000 mm 0 W/m 6,4 C 7,9 C 17,7 km/h (3 Bft) 97 %
22.10.2017 21:10 7,9 C 7,9 C 7,9 C 90 % 1016,7 hPa 0,4 l/m 4,8 km/h (1 Bft) W-SW 247 0 min 0,000 mm 0 W/m 6,4 C 7,9 C 16,1 km/h (3 Bft) 100 %
22.10.2017 21:20 7,9 C 7,9 C 7,9 C 90 % 1016,6 hPa 0,6 l/m 1,6 km/h (1 Bft) W-SW 247 0 min 0,000 mm 0 W/m 6,4 C 7,9 C 11,3 km/h (2 Bft) 100 %
22.10.2017 21:30 7,9 C 7,9 C 7,9 C 90 % 1016,6 hPa 0,4 l/m 4,8 km/h (1 Bft) W 270 0 min 0,000 mm 0 W/m 6,4 C 7,9 C 19,3 km/h (3 Bft) 99 %
22.10.2017 21:40 7,9 C 7,9 C 7,9 C 90 % 1016,7 hPa 0,2 l/m 4,8 km/h (1 Bft) W 270 0 min 0,000 mm 0 W/m 6,4 C 7,9 C 16,1 km/h (3 Bft) 100 %
22.10.2017 21:50 7,9 C 7,9 C 7,9 C 90 % 1016,6 hPa 0,2 l/m 4,8 km/h (1 Bft) SW 225 0 min 0,000 mm 0 W/m 6,4 C 7,9 C 16,1 km/h (3 Bft) 100 %
22.10.2017 22:00 7,9 C 7,9 C 7,9 C 90 % 1016,7 hPa 0,6 l/m 6,4 km/h (2 Bft) W-SW 247 0 min 0,000 mm 0 W/m 6,4 C 7,9 C 17,7 km/h (3 Bft) 99 %
22.10.2017 22:10 7,8 C 7,8 C 7,9 C 90 % 1016,8 hPa 0,2 l/m 6,4 km/h (2 Bft) SW 225 0 min 0,000 mm 0 W/m 6,3 C 7,8 C 20,9 km/h (4 Bft) 99 %
22.10.2017 22:20 7,8 C 7,8 C 7,8 C 90 % 1017,0 hPa 0,0 l/m 1,6 km/h (1 Bft) W-SW 247 0 min 0,000 mm 0 W/m 6,3 C 7,8 C 11,3 km/h (2 Bft) 99 %
22.10.2017 22:30 7,8 C 7,8 C 7,8 C 90 % 1017,1 hPa 0,0 l/m 1,6 km/h (1 Bft) W-SW 247 0 min 0,000 mm 0 W/m 6,3 C 7,8 C 9,7 km/h (2 Bft) 100 %
22.10.2017 22:40 7,8 C 7,8 C 7,8 C 90 % 1017,2 hPa 0,0 l/m 4,8 km/h (1 Bft) W-SW 247 0 min 0,000 mm 0 W/m 6,3 C 7,8 C 17,7 km/h (3 Bft) 99 %
22.10.2017 22:50 7,7 C 7,7 C 7,8 C 90 % 1017,3 hPa 0,0 l/m 3,2 km/h (1 Bft) W 270 0 min 0,000 mm 0 W/m 6,2 C 7,7 C 14,5 km/h (3 Bft) 100 %
22.10.2017 23:00 7,7 C 7,7 C 7,7 C 90 % 1017,4 hPa 0,0 l/m 1,6 km/h (1 Bft) W 270 0 min 0,000 mm 0 W/m 6,2 C 7,7 C 11,3 km/h (2 Bft) 100 %
22.10.2017 23:10 7,6 C 7,6 C 7,7 C 90 % 1017,3 hPa 0,0 l/m 1,6 km/h (1 Bft) W 270 0 min 0,000 mm 0 W/m 6,1 C 7,6 C 14,5 km/h (3 Bft) 100 %
22.10.2017 23:20 7,5 C 7,5 C 7,6 C 90 % 1017,4 hPa 0,0 l/m 0,0 km/h (0 Bft) W-SW 247 0 min 0,000 mm 0 W/m 6,0 C 7,5 C 9,7 km/h (2 Bft) 99 %
22.10.2017 23:30 7,4 C 7,4 C 7,5 C 90 % 1017,4 hPa 0,0 l/m 1,6 km/h (1 Bft) W 270 0 min 0,000 mm 0 W/m 5,9 C 7,4 C 11,3 km/h (2 Bft) 99 %
22.10.2017 23:40 7,4 C 7,4 C 7,4 C 90 % 1017,6 hPa 0,0 l/m 4,8 km/h (1 Bft) W-SW 247 0 min 0,000 mm 0 W/m 5,9 C 7,4 C 17,7 km/h (3 Bft) 100 %
22.10.2017 23:50 7,4 C 7,4 C 7,4 C 90 % 1017,5 hPa 0,0 l/m 1,6 km/h (1 Bft) W-SW 247 0 min 0,000 mm 0 W/m 5,9 C 7,4 C 11,3 km/h (2 Bft) 100 %
_ Min-Zeit 06:20 06:20 23:40 13:50 14:30 - 01:10 - - - - - 06:20 11:30 01:10 04:20
Minimum _ 7,4 C 7,4 C 7,4 C 72 % 1014,5 hPa - 0,0 km/h (0 Bft) - - - - - 5,9 C 3,0 C 1,6 km/h (1 Bft) 89 %
_ Max-Zeit 13:40 13:40 13:40 08:40 23:40 21:20 13:50 - - 12:40 14:00 13:10 00:00 15:30 14:50 00:00
Maximum _ 11,9 C 11,8 C 11,9 C 91 % 1017,6 hPa 0,6 l/m 20,1 km/h
SW (4 Bft)
- - 20 min 0,229 mm 534 W/m 7,9 C 10,2 C 45,1 km/h
SW (6 Bft)
100 %
Durchschnitt _ 8,8 C 8,8 C 8,9 C 87 % 1015,9 hPa #4,6 l/m 7,8 km/h (2 Bft) S-SW - #3:30 h #0,864 mm 142 W/m 6,8 C 7,3 C 21,3 km/h (4 Bft) 99 %
PRIVATE WETTERSTATION BILLIGHEIM-ALLFELD - www.neckar-odenwald-wetter.de - Holger Sonntag